createdAt,value
2023-01-09T00:01:54.391Z,99683.25
2023-01-09T00:04:56.804Z,99684.59
2023-01-09T00:07:59.002Z,99679.41
2023-01-09T00:11:01.636Z,99683.31
2023-01-09T00:14:04.825Z,99688.09
2023-01-09T00:17:07.345Z,99683.75
2023-01-09T00:20:11.052Z,99679.81
2023-01-09T00:23:13.563Z,99678.84
2023-01-09T00:26:18.891Z,99674.91
2023-01-09T00:29:21.485Z,99678.81
2023-01-09T00:32:23.770Z,99679.16
2023-01-09T00:35:28.598Z,99676.16
2023-01-09T00:38:31.083Z,99671.63
2023-01-09T00:41:46.045Z,99663.81
2023-01-09T00:44:52.576Z,99663.94
2023-01-09T00:47:59.409Z,99657.78
2023-01-09T00:51:01.603Z,99663.00
2023-01-09T00:54:04.630Z,99661.03
2023-01-09T00:57:08.028Z,99659.72
2023-01-09T01:00:11.274Z,99654.22
2023-01-09T01:03:13.472Z,99648.47
2023-01-09T01:06:34.817Z,99656.88
2023-01-09T01:09:37.194Z,99642.34
2023-01-09T01:12:40.484Z,99635.81
2023-01-09T01:15:46.264Z,99640.94
2023-01-09T01:18:48.918Z,99631.34
2023-01-09T01:21:51.383Z,99630.22
2023-01-09T01:24:53.838Z,99630.22
2023-01-09T01:27:56.164Z,99633.53
2023-01-09T01:30:58.782Z,99632.94
2023-01-09T01:34:01.032Z,99634.53
2023-01-09T01:37:03.463Z,99627.34
2023-01-09T01:40:08.022Z,99615.25
2023-01-09T01:43:12.659Z,99611.25
2023-01-09T01:46:18.908Z,99611.81
2023-01-09T01:49:21.792Z,99609.56
2023-01-09T01:52:25.589Z,99606.13
2023-01-09T01:55:28.111Z,99599.41
2023-01-09T01:58:30.922Z,99598.41
2023-01-09T02:01:34.237Z,99594.41
2023-01-09T02:04:40.348Z,99586.75
2023-01-09T02:07:42.882Z,99589.13
2023-01-09T02:10:45.114Z,99581.28
2023-01-09T02:13:48.392Z,99577.28
2023-01-09T02:17:21.696Z,99564.97
2023-01-09T02:20:40.383Z,99562.41
2023-01-09T02:24:08.675Z,99554.03
2023-01-09T02:27:43.353Z,99554.59
2023-01-09T02:30:56.860Z,99556.88
2023-01-09T02:34:04.471Z,99545.59
2023-01-09T02:37:06.630Z,99544.91
2023-01-09T02:40:18.008Z,99551.16
2023-01-09T02:43:20.683Z,99537.59
2023-01-09T02:46:23.310Z,99541.59
2023-01-09T02:49:25.733Z,99537.06
2023-01-09T02:52:45.210Z,99532.16
2023-01-09T02:55:52.717Z,99536.03
2023-01-09T02:59:07.318Z,99536.00
2023-01-09T03:02:39.667Z,99522.44
2023-01-09T03:05:42.144Z,99526.69
2023-01-09T03:08:49.113Z,99517.50
2023-01-09T03:12:00.055Z,99510.69
2023-01-09T03:15:04.616Z,99503.81
2023-01-09T03:18:10.488Z,99509.22
2023-01-09T03:21:13.602Z,99509.03
2023-01-09T03:24:16.273Z,99509.66
2023-01-09T03:27:18.589Z,99504.44
2023-01-09T03:30:21.153Z,99497.44
2023-01-09T03:33:23.399Z,99499.84
2023-01-09T03:36:26.064Z,99501.53
2023-01-09T03:39:28.420Z,99491.37
2023-01-09T03:42:39.403Z,99494.31
2023-01-09T03:45:42.746Z,99492.13
2023-01-09T03:48:45.273Z,99481.88
2023-01-09T03:51:47.438Z,99485.75
2023-01-09T03:54:49.876Z,99478.31
2023-01-09T03:57:52.903Z,99483.88
2023-01-09T04:01:03.977Z,99477.50
2023-01-09T04:04:06.762Z,99482.84
2023-01-09T04:07:08.945Z,99475.94
2023-01-09T04:10:12.217Z,99479.81
2023-01-09T04:13:14.711Z,99485.25
2023-01-09T04:16:17.331Z,99479.41
2023-01-09T04:19:19.578Z,99477.91
2023-01-09T04:22:22.025Z,99478.44
2023-01-09T04:25:24.164Z,99479.91
2023-01-09T04:28:26.603Z,99473.00
2023-01-09T04:31:28.758Z,99487.22
2023-01-09T04:34:31.310Z,99485.94
2023-01-09T04:37:33.554Z,99481.81
2023-01-09T04:40:36.021Z,99484.81
2023-01-09T04:43:38.688Z,99487.66
2023-01-09T04:46:41.206Z,99490.87
2023-01-09T04:49:43.486Z,99486.78
2023-01-09T04:52:45.960Z,99483.66
2023-01-09T04:55:48.192Z,99485.75
2023-01-09T04:58:51.087Z,99480.44
2023-01-09T05:01:54.744Z,99483.03
2023-01-09T05:04:57.301Z,99484.06
2023-01-09T05:07:59.520Z,99481.34
2023-01-09T05:11:02.115Z,99482.09
2023-01-09T05:14:04.277Z,99480.94
2023-01-09T05:17:06.911Z,99478.44
2023-01-09T05:20:09.596Z,99477.63
2023-01-09T05:23:12.284Z,99472.88
2023-01-09T05:26:14.491Z,99467.56
2023-01-09T05:29:17.317Z,99463.72
2023-01-09T05:32:19.737Z,99471.34
2023-01-09T05:35:22.456Z,99463.19
2023-01-09T05:38:24.700Z,99459.34
2023-01-09T05:41:27.234Z,99458.38
2023-01-09T05:44:29.480Z,99459.53
2023-01-09T05:47:32.442Z,99463.19
2023-01-09T05:50:34.712Z,99463.81
2023-01-09T05:53:37.390Z,99473.34
2023-01-09T05:56:39.643Z,99472.81
2023-01-09T05:59:42.298Z,99472.81
2023-01-09T06:02:44.713Z,99468.31
2023-01-09T06:05:47.435Z,99464.66
2023-01-09T06:08:49.872Z,99468.09
2023-01-09T06:11:54.776Z,99469.78
2023-01-09T06:14:59.185Z,99465.59
2023-01-09T06:18:01.942Z,99460.87
2023-01-09T06:21:05.532Z,99466.94
2023-01-09T06:24:09.180Z,99481.91
2023-01-09T06:27:14.062Z,99478.53
2023-01-09T06:30:16.953Z,99477.28
2023-01-09T06:33:20.558Z,99487.12
2023-01-09T06:36:24.359Z,99499.25
2023-01-09T06:39:28.798Z,99494.22
2023-01-09T06:42:31.701Z,99500.00
2023-01-09T06:45:34.205Z,99494.75
2023-01-09T06:48:37.205Z,99493.91
2023-01-09T06:51:40.093Z,99487.75
2023-01-09T06:54:43.068Z,99490.78
2023-01-09T06:57:45.827Z,99486.09
2023-01-09T07:00:49.605Z,99485.97
2023-01-09T07:03:52.086Z,99481.06
2023-01-09T07:06:54.824Z,99488.69
2023-01-09T07:09:57.079Z,99491.50
2023-01-09T07:12:59.871Z,99491.50
2023-01-09T07:16:03.389Z,99481.47
2023-01-09T07:19:06.203Z,99475.41
2023-01-09T07:22:08.559Z,99486.50
2023-01-09T07:25:11.679Z,99484.22
2023-01-09T07:28:14.248Z,99482.44
2023-01-09T07:31:17.754Z,99481.88
2023-01-09T07:34:21.409Z,99483.34
2023-01-09T07:37:24.492Z,99479.06
2023-01-09T07:40:27.277Z,99466.31
2023-01-09T07:43:29.844Z,99456.03
2023-01-09T07:46:32.126Z,99467.63
2023-01-09T07:49:35.017Z,99464.53
2023-01-09T07:52:37.232Z,99469.75
2023-01-09T07:55:39.666Z,99458.00
2023-01-09T07:58:42.264Z,99459.87
2023-01-09T08:01:44.961Z,99449.94
2023-01-09T08:04:47.836Z,99449.97
2023-01-09T08:07:51.372Z,99450.97
2023-01-09T08:10:54.060Z,99461.88
2023-01-09T08:13:56.315Z,99444.19
2023-01-09T08:16:59.349Z,99449.03
2023-01-09T08:20:07.322Z,99441.72
2023-01-09T08:23:09.823Z,99444.06
2023-01-09T08:26:12.207Z,99457.66
2023-01-09T08:29:14.854Z,99473.97
2023-01-09T08:32:17.099Z,99490.91
2023-01-09T08:35:21.826Z,99465.06
2023-01-09T08:38:24.065Z,99443.88
2023-01-09T08:41:45.279Z,99450.22
2023-01-09T08:45:06.082Z,99457.97
2023-01-09T08:48:08.615Z,99465.13
2023-01-09T08:51:11.060Z,99460.56
2023-01-09T08:54:13.754Z,99474.34
2023-01-09T08:57:15.950Z,99480.72
2023-01-09T09:00:20.395Z,99455.78
2023-01-09T09:03:22.853Z,99451.50
2023-01-09T09:06:25.345Z,99452.75
2023-01-09T09:09:27.600Z,99430.06
2023-01-09T09:12:30.054Z,99437.16
2023-01-09T09:15:34.234Z,99441.75
2023-01-09T09:18:36.936Z,99432.34
2023-01-09T09:21:39.355Z,99423.47
2023-01-09T09:24:42.034Z,99430.69
2023-01-09T09:27:44.935Z,99424.63
2023-01-09T09:30:47.806Z,99422.31
2023-01-09T09:33:50.401Z,99415.03
2023-01-09T09:36:54.331Z,99415.66
2023-01-09T09:39:57.997Z,99407.50
2023-01-09T09:44:01.663Z,99402.69
2023-01-09T09:47:31.497Z,99413.66
2023-01-09T09:50:52.841Z,99400.06
2023-01-09T09:53:59.994Z,99384.00
2023-01-09T09:57:05.728Z,99399.97
2023-01-09T10:00:15.672Z,99403.06
2023-01-09T10:03:34.145Z,99397.16
2023-01-09T10:06:43.126Z,99392.81
2023-01-09T10:09:49.227Z,99393.25
2023-01-09T10:12:59.908Z,99395.44
2023-01-09T10:16:36.177Z,99387.97
2023-01-09T10:20:18.901Z,99395.09
2023-01-09T10:23:24.502Z,99388.34
2023-01-09T10:26:36.794Z,99381.66
2023-01-09T10:29:54.382Z,99370.94
2023-01-09T10:33:02.713Z,99369.53
2023-01-09T10:36:42.276Z,99357.75
2023-01-09T10:39:47.726Z,99353.44
2023-01-09T10:43:17.107Z,99344.75
2023-01-09T10:46:44.231Z,99348.62
2023-01-09T10:49:50.001Z,99357.28
2023-01-09T10:52:56.070Z,99358.50
2023-01-09T10:56:22.646Z,99346.37
2023-01-09T10:59:25.496Z,99335.88
2023-01-09T11:02:32.940Z,99332.91
2023-01-09T11:05:36.731Z,99323.03
2023-01-09T11:08:42.724Z,99307.28
2023-01-09T11:11:45.414Z,99305.84
2023-01-09T11:14:47.882Z,99308.88
2023-01-09T11:17:51.792Z,99304.03
2023-01-09T11:20:54.427Z,99296.41
2023-01-09T11:23:57.368Z,99293.72
2023-01-09T11:27:23.799Z,99290.16
2023-01-09T11:30:27.959Z,99294.25
2023-01-09T11:33:49.874Z,99294.47
2023-01-09T11:36:54.261Z,99294.66
2023-01-09T11:39:59.477Z,99290.50
2023-01-09T11:43:12.912Z,99287.75
2023-01-09T11:46:40.846Z,99282.66
2023-01-09T11:49:43.225Z,99282.16
2023-01-09T11:52:46.580Z,99273.16
2023-01-09T11:56:03.676Z,99269.81
2023-01-09T11:59:15.016Z,99273.69
2023-01-09T12:02:23.310Z,99276.09
2023-01-09T12:05:39.127Z,99271.69
2023-01-09T12:08:53.738Z,99265.88
2023-01-09T12:12:11.197Z,99256.75
2023-01-09T12:15:58.024Z,99250.69
2023-01-09T12:19:12.818Z,99249.03
2023-01-09T12:22:34.740Z,99233.56
2023-01-09T12:26:08.251Z,99241.63
2023-01-09T12:29:44.712Z,99252.44
2023-01-09T12:33:11.574Z,99250.31
2023-01-09T12:36:17.834Z,99252.72
2023-01-09T12:39:49.546Z,99251.97
2023-01-09T12:43:20.801Z,99235.41
2023-01-09T12:46:27.294Z,99225.28
2023-01-09T12:49:32.476Z,99224.13
2023-01-09T12:52:43.758Z,99216.56
2023-01-09T12:56:06.756Z,99207.00
2023-01-09T12:59:43.927Z,99210.03
2023-01-09T13:02:51.689Z,99206.03
2023-01-09T13:05:58.726Z,99202.38
2023-01-09T13:09:27.638Z,99192.97
2023-01-09T13:12:37.546Z,99184.16
2023-01-09T13:15:43.643Z,99193.47
2023-01-09T13:18:58.355Z,99185.72
2023-01-09T13:22:01.215Z,99191.00
2023-01-09T13:25:08.491Z,99191.00
2023-01-09T13:28:16.744Z,99195.41
2023-01-09T13:31:52.641Z,99197.12
2023-01-09T13:34:57.704Z,99194.75
2023-01-09T13:38:00.698Z,99198.78
2023-01-09T13:41:33.636Z,99208.56
2023-01-09T13:44:36.251Z,99206.22
2023-01-09T13:47:38.604Z,99213.59
2023-01-09T13:50:42.588Z,99210.50
2023-01-09T13:53:46.408Z,99215.84
2023-01-09T13:57:17.825Z,99208.59
2023-01-09T14:00:19.919Z,99208.37
2023-01-09T14:03:32.871Z,99205.50
2023-01-09T14:06:35.768Z,99221.00
2023-01-09T14:09:51.058Z,99221.53
2023-01-09T14:12:55.848Z,99225.56
2023-01-09T14:16:09.233Z,99222.81
2023-01-09T14:19:14.532Z,99216.59
2023-01-09T14:22:30.196Z,99217.84
2023-01-09T14:25:32.822Z,99202.13
2023-01-09T14:28:35.417Z,99214.38
2023-01-09T14:31:37.842Z,99222.44
2023-01-09T14:34:42.381Z,99218.09
2023-01-09T14:38:00.396Z,99216.19
2023-01-09T14:42:03.857Z,99210.75
2023-01-09T14:45:13.956Z,99197.16
2023-01-09T14:48:17.356Z,99197.81
2023-01-09T14:51:22.773Z,99195.56
2023-01-09T14:54:31.833Z,99198.78
2023-01-09T14:57:34.797Z,99195.13
2023-01-09T15:00:37.470Z,99196.19
2023-01-09T15:03:59.169Z,99198.06
2023-01-09T15:07:03.871Z,99190.56
2023-01-09T15:10:08.099Z,99190.72
2023-01-09T15:13:15.815Z,99201.72
2023-01-09T15:16:24.562Z,99202.38
2023-01-09T15:19:28.277Z,99204.94
2023-01-09T15:22:31.970Z,99207.56
2023-01-09T15:25:39.644Z,99214.66
2023-01-09T15:28:43.836Z,99206.59
2023-01-09T15:32:09.311Z,99207.78
2023-01-09T15:35:14.195Z,99210.19
2023-01-09T15:38:22.323Z,99210.19
2023-01-09T15:41:45.701Z,99206.22
2023-01-09T15:44:51.075Z,99202.03
2023-01-09T15:47:54.604Z,99197.62
2023-01-09T15:50:58.536Z,99201.94
2023-01-09T15:54:01.223Z,99193.47
2023-01-09T15:57:24.379Z,99180.53
2023-01-09T16:00:41.536Z,99180.31
2023-01-09T16:03:44.390Z,99174.75
2023-01-09T16:06:50.078Z,99173.56
2023-01-09T16:09:52.869Z,99167.22
2023-01-09T16:12:55.428Z,99167.22
2023-01-09T16:16:01.132Z,99158.88
2023-01-09T16:19:03.658Z,99161.41
2023-01-09T16:22:22.996Z,99158.28
2023-01-09T16:25:32.191Z,99165.28
2023-01-09T16:28:34.749Z,99167.00
2023-01-09T16:31:37.069Z,99158.62
2023-01-09T16:34:42.432Z,99161.97
2023-01-09T16:37:44.833Z,99158.22
2023-01-09T16:41:26.516Z,99154.78
2023-01-09T16:44:28.761Z,99141.81
2023-01-09T16:47:31.273Z,99148.72
2023-01-09T16:50:33.537Z,99146.31
2023-01-09T16:53:36.157Z,99151.31
2023-01-09T16:56:40.289Z,99147.34
2023-01-09T16:59:43.657Z,99148.88
2023-01-09T17:02:46.070Z,99142.34
2023-01-09T17:05:55.421Z,99136.12
2023-01-09T17:08:57.855Z,99134.13
2023-01-09T17:12:00.367Z,99133.28
2023-01-09T17:15:02.692Z,99131.25
2023-01-09T17:18:06.727Z,99130.34
2023-01-09T17:21:19.922Z,99142.66
2023-01-09T17:24:41.154Z,99141.03
2023-01-09T17:28:02.140Z,99144.72
2023-01-09T17:31:08.680Z,99144.78
2023-01-09T17:34:10.945Z,99147.37
2023-01-09T17:37:15.710Z,99141.13
2023-01-09T17:40:21.574Z,99140.94
2023-01-09T17:43:24.507Z,99134.00
2023-01-09T17:46:35.393Z,99127.91
2023-01-09T17:49:38.909Z,99110.59
2023-01-09T17:52:41.127Z,99110.59
2023-01-09T17:55:43.663Z,99115.38
2023-01-09T17:58:45.996Z,99113.34
2023-01-09T18:01:48.785Z,99113.12
2023-01-09T18:04:51.440Z,99116.84
2023-01-09T18:07:53.836Z,99107.91
2023-01-09T18:10:56.434Z,99102.56
2023-01-09T18:13:58.754Z,99097.25
2023-01-09T18:17:02.492Z,99100.69
2023-01-09T18:20:05.831Z,99104.72
2023-01-09T18:23:10.904Z,99097.97
2023-01-09T18:26:20.197Z,99099.72
2023-01-09T18:29:22.849Z,99088.19
2023-01-09T18:32:25.114Z,99090.25
2023-01-09T18:35:28.527Z,99092.03
2023-01-09T18:38:30.862Z,99094.94
2023-01-09T18:41:33.591Z,99087.56
2023-01-09T18:44:35.892Z,99084.94
2023-01-09T18:47:38.465Z,99085.69
2023-01-09T18:50:40.830Z,99080.31
2023-01-09T18:53:43.332Z,99080.63
2023-01-09T18:56:45.543Z,99071.03
2023-01-09T18:59:48.137Z,99068.00
2023-01-09T19:02:50.396Z,99061.81
2023-01-09T19:05:53.018Z,99055.87
2023-01-09T19:08:56.202Z,99062.31
2023-01-09T19:11:58.794Z,99062.25
2023-01-09T19:15:01.035Z,99071.16
2023-01-09T19:18:03.797Z,99065.19
2023-01-09T19:21:18.109Z,99062.81
2023-01-09T19:24:21.222Z,99060.81
2023-01-09T19:27:23.478Z,99058.63
2023-01-09T19:30:26.571Z,99059.66
2023-01-09T19:33:28.735Z,99052.03
2023-01-09T19:36:31.403Z,99042.97
2023-01-09T19:39:33.731Z,99045.59
2023-01-09T19:42:36.280Z,99039.94
2023-01-09T19:45:39.069Z,99037.53
2023-01-09T19:48:44.927Z,99034.41
2023-01-09T19:51:47.669Z,99034.19
2023-01-09T19:54:50.161Z,99034.06
2023-01-09T19:57:52.423Z,99029.16
2023-01-09T20:00:54.983Z,99028.09
2023-01-09T20:04:02.847Z,99029.22
2023-01-09T20:07:05.229Z,99034.00
2023-01-09T20:10:08.269Z,99027.50
2023-01-09T20:13:10.489Z,99021.78
2023-01-09T20:16:21.438Z,99017.22
2023-01-09T20:19:23.924Z,99019.09
2023-01-09T20:22:26.560Z,99023.50
2023-01-09T20:25:28.861Z,99011.84
2023-01-09T20:28:31.407Z,99008.50
2023-01-09T20:31:33.766Z,99011.56
2023-01-09T20:34:36.398Z,99010.19
2023-01-09T20:37:40.015Z,99009.25
2023-01-09T20:40:43.955Z,98997.91
2023-01-09T20:43:46.575Z,98986.31
2023-01-09T20:46:49.454Z,98987.19
2023-01-09T20:49:51.746Z,98990.78
2023-01-09T20:52:54.379Z,98984.53
2023-01-09T20:56:05.777Z,98985.34
2023-01-09T20:59:12.875Z,98981.00
2023-01-09T21:02:15.089Z,98985.88
2023-01-09T21:05:17.635Z,98982.00
2023-01-09T21:08:20.157Z,98980.37
2023-01-09T21:11:22.821Z,98981.41
2023-01-09T21:14:25.014Z,98985.78
2023-01-09T21:17:35.475Z,98977.53
2023-01-09T21:20:37.662Z,98983.91
2023-01-09T21:23:51.953Z,98981.78
2023-01-09T21:26:54.311Z,98977.31
2023-01-09T21:29:56.813Z,98978.06
2023-01-09T21:32:59.040Z,98980.44
2023-01-09T21:36:05.050Z,98985.34
2023-01-09T21:39:08.426Z,98985.00
2023-01-09T21:42:29.751Z,98980.09
2023-01-09T21:45:50.584Z,98984.41
2023-01-09T21:48:53.252Z,98979.16
2023-01-09T21:51:55.904Z,98979.06
2023-01-09T21:54:58.396Z,98978.66
2023-01-09T21:58:04.186Z,98985.22
2023-01-09T22:01:06.733Z,98982.53
2023-01-09T22:04:11.599Z,98983.12
2023-01-09T22:07:13.877Z,98985.53
2023-01-09T22:10:16.887Z,98988.47
2023-01-09T22:13:20.421Z,98990.66
2023-01-09T22:16:27.171Z,98989.56
2023-01-09T22:19:29.553Z,98986.97
2023-01-09T22:22:32.008Z,98989.91
2023-01-09T22:25:36.911Z,98992.31
2023-01-09T22:28:40.866Z,98991.75
2023-01-09T22:31:43.356Z,98995.53
2023-01-09T22:34:45.958Z,98995.22
2023-01-09T22:37:48.134Z,98986.81
2023-01-09T22:40:50.580Z,98991.28
2023-01-09T22:43:53.008Z,98988.37
2023-01-09T22:46:57.358Z,98986.75
2023-01-09T22:49:59.633Z,98991.31
2023-01-09T22:53:02.345Z,98984.94
2023-01-09T22:56:08.298Z,98982.78
2023-01-09T22:59:10.810Z,98985.84
2023-01-09T23:02:13.239Z,98992.12
2023-01-09T23:05:15.896Z,98986.53
2023-01-09T23:08:18.294Z,98990.16
2023-01-09T23:11:46.073Z,98991.16
2023-01-09T23:14:48.741Z,98989.06
2023-01-09T23:17:51.521Z,98976.22
2023-01-09T23:20:56.540Z,98976.47
2023-01-09T23:23:59.126Z,98980.94
2023-01-09T23:27:01.709Z,98981.97
2023-01-09T23:30:04.660Z,98974.50
2023-01-09T23:33:06.788Z,98977.00
2023-01-09T23:36:09.656Z,98983.09
2023-01-09T23:39:11.902Z,98976.47
2023-01-09T23:42:32.986Z,98971.47
2023-01-09T23:45:39.066Z,98975.03
2023-01-09T23:48:41.912Z,98970.78
2023-01-09T23:51:44.619Z,98961.84
2023-01-09T23:54:47.063Z,98960.59
2023-01-09T23:57:54.392Z,98969.38
